createdAt,value
2018-10-09T00:00:36.357Z,11.10
2018-10-09T00:03:05.136Z,11.20
2018-10-09T00:05:33.900Z,11.50
2018-10-09T00:08:02.860Z,11.50
2018-10-09T00:10:32.281Z,11.20
2018-10-09T00:13:01.335Z,11.00
2018-10-09T00:15:30.208Z,10.80
2018-10-09T00:17:59.189Z,10.80
2018-10-09T00:20:28.374Z,11.10
2018-10-09T00:23:00.221Z,10.80
2018-10-09T00:25:29.779Z,10.90
2018-10-09T00:27:58.679Z,10.70
2018-10-09T00:30:27.682Z,10.80
2018-10-09T00:32:56.753Z,10.80
2018-10-09T00:35:25.503Z,11.00
2018-10-09T00:37:54.141Z,11.00
2018-10-09T00:40:22.813Z,11.10
2018-10-09T00:42:51.812Z,11.10
2018-10-09T00:45:20.499Z,11.10
2018-10-09T00:47:49.343Z,11.10
2018-10-09T00:50:18.253Z,11.30
2018-10-09T00:52:47.229Z,11.10
2018-10-09T00:55:17.119Z,10.90
2018-10-09T00:57:46.038Z,10.70
2018-10-09T01:00:15.047Z,10.50
2018-10-09T01:02:44.037Z,10.80
2018-10-09T01:05:12.965Z,10.80
2018-10-09T01:07:42.151Z,10.50
2018-10-09T01:10:10.987Z,10.70
2018-10-09T01:12:39.803Z,10.70
2018-10-09T01:15:08.730Z,11.10
2018-10-09T01:17:38.051Z,10.90
2018-10-09T01:20:07.011Z,10.80
2018-10-09T01:22:36.142Z,10.80
2018-10-09T01:25:05.158Z,10.80
2018-10-09T01:27:33.897Z,11.00
2018-10-09T01:30:02.636Z,11.10
2018-10-09T01:32:31.391Z,10.80
2018-10-09T01:35:00.213Z,10.70
2018-10-09T01:37:29.077Z,10.80
2018-10-09T01:39:57.809Z,10.80
2018-10-09T01:42:26.570Z,10.80
2018-10-09T01:44:55.366Z,10.70
2018-10-09T01:47:24.285Z,10.60
2018-10-09T01:49:53.080Z,10.80
2018-10-09T01:52:22.016Z,10.80
2018-10-09T01:54:50.728Z,11.10
2018-10-09T01:57:19.458Z,10.50
2018-10-09T01:59:48.290Z,10.60
2018-10-09T02:02:17.062Z,10.60
2018-10-09T02:04:45.874Z,10.60
2018-10-09T02:07:14.566Z,10.50
2018-10-09T02:09:43.382Z,10.50
2018-10-09T02:12:12.142Z,10.70
2018-10-09T02:14:41.186Z,10.40
2018-10-09T02:17:09.940Z,10.40
2018-10-09T02:19:38.608Z,10.60
2018-10-09T02:22:08.276Z,10.80
2018-10-09T02:24:37.054Z,10.80
2018-10-09T02:27:05.910Z,11.10
2018-10-09T02:29:34.536Z,11.10
2018-10-09T02:32:04.706Z,11.00
2018-10-09T02:34:33.340Z,11.10
2018-10-09T02:37:02.009Z,10.90
2018-10-09T02:39:30.784Z,11.10
2018-10-09T02:41:59.717Z,10.80
2018-10-09T02:44:28.456Z,10.80
2018-10-09T02:46:57.226Z,10.60
2018-10-09T02:49:25.957Z,10.60
2018-10-09T02:51:54.832Z,10.50
2018-10-09T02:54:26.233Z,10.80
2018-10-09T02:56:55.305Z,11.10
2018-10-09T02:59:24.145Z,10.80
2018-10-09T03:01:53.029Z,11.10
2018-10-09T03:04:21.835Z,10.90
2018-10-09T03:06:50.504Z,11.10
2018-10-09T03:09:19.197Z,10.60
2018-10-09T03:11:47.867Z,10.80
2018-10-09T03:14:16.699Z,10.90
2018-10-09T03:16:45.619Z,10.50
2018-10-09T03:19:14.375Z,10.50
2018-10-09T03:21:43.154Z,10.50
2018-10-09T03:24:12.067Z,10.60
2018-10-09T03:26:40.711Z,10.80
2018-10-09T03:29:09.440Z,10.80
2018-10-09T03:31:38.283Z,10.70
2018-10-09T03:34:07.223Z,10.80
2018-10-09T03:36:36.821Z,10.70
2018-10-09T03:39:07.532Z,10.80
2018-10-09T03:41:36.312Z,10.80
2018-10-09T03:44:05.190Z,10.70
2018-10-09T03:46:34.123Z,10.80
2018-10-09T03:49:03.061Z,10.80
2018-10-09T03:51:31.770Z,10.60
2018-10-09T03:54:00.549Z,10.50
2018-10-09T03:56:29.607Z,10.60
2018-10-09T03:58:58.451Z,10.50
2018-10-09T04:01:27.298Z,10.80
2018-10-09T04:03:56.185Z,10.70
2018-10-09T04:06:25.057Z,10.60
2018-10-09T04:08:54.015Z,10.80
2018-10-09T04:11:22.679Z,11.10
2018-10-09T04:13:51.502Z,10.70
2018-10-09T04:16:20.516Z,10.70
2018-10-09T04:18:49.401Z,10.70
2018-10-09T04:21:18.593Z,10.70
2018-10-09T04:23:47.442Z,10.80
2018-10-09T04:26:16.217Z,10.90
2018-10-09T04:28:45.074Z,10.70
2018-10-09T04:31:14.033Z,10.80
2018-10-09T04:33:42.889Z,10.60
2018-10-09T04:36:11.764Z,10.80
2018-10-09T04:38:40.623Z,10.60
2018-10-09T04:41:09.347Z,10.70
2018-10-09T04:43:38.315Z,10.80
2018-10-09T04:46:07.292Z,10.60
2018-10-09T04:48:36.555Z,10.80
2018-10-09T04:51:05.373Z,10.80
2018-10-09T04:53:34.119Z,10.50
2018-10-09T04:56:02.939Z,10.20
2018-10-09T04:58:31.709Z,10.10
2018-10-09T05:01:00.541Z,10.20
2018-10-09T05:03:29.411Z,10.10
2018-10-09T05:05:58.279Z,10.00
2018-10-09T05:08:26.975Z,10.00
2018-10-09T05:10:55.775Z,10.50
2018-10-09T05:13:24.534Z,10.00
2018-10-09T05:15:53.534Z,10.10
2018-10-09T05:18:22.384Z,10.40
2018-10-09T05:20:51.113Z,10.50
2018-10-09T05:23:20.116Z,10.50
2018-10-09T05:25:49.043Z,10.50
2018-10-09T05:28:17.927Z,10.40
2018-10-09T05:30:46.709Z,10.40
2018-10-09T05:33:15.434Z,10.40
2018-10-09T05:35:44.242Z,10.40
2018-10-09T05:38:13.133Z,10.00
2018-10-09T05:40:42.038Z,10.00
2018-10-09T05:43:10.911Z,9.80
2018-10-09T05:45:41.075Z,9.90
2018-10-09T05:48:10.655Z,9.90
2018-10-09T05:50:39.618Z,9.70
2018-10-09T05:53:08.283Z,9.80
2018-10-09T05:55:37.302Z,9.90
2018-10-09T05:58:06.283Z,10.10
2018-10-09T06:00:34.778Z,10.20
2018-10-09T06:03:03.661Z,10.10
2018-10-09T06:05:32.290Z,10.10
2018-10-09T06:08:00.903Z,10.20
2018-10-09T06:10:29.940Z,9.80
2018-10-09T06:12:58.646Z,9.60
2018-10-09T06:15:27.432Z,9.70
2018-10-09T06:17:56.106Z,9.60
2018-10-09T06:20:24.790Z,9.80
2018-10-09T06:22:53.608Z,10.10
2018-10-09T06:25:22.248Z,9.80
2018-10-09T06:27:51.163Z,9.90
2018-10-09T06:30:20.260Z,10.10
2018-10-09T06:32:49.233Z,9.90
2018-10-09T06:35:18.245Z,9.90
2018-10-09T06:37:47.196Z,10.10
2018-10-09T06:40:16.222Z,10.00
2018-10-09T06:42:45.202Z,10.10
2018-10-09T06:45:14.156Z,10.00
2018-10-09T06:47:43.139Z,10.10
2018-10-09T06:50:12.192Z,10.10
2018-10-09T06:52:41.410Z,10.20
2018-10-09T06:55:10.340Z,10.00
2018-10-09T06:57:39.370Z,10.20
2018-10-09T07:00:08.871Z,10.30
2018-10-09T07:02:38.072Z,10.30
2018-10-09T07:05:07.208Z,10.50
2018-10-09T07:07:36.171Z,10.30
2018-10-09T07:10:05.277Z,10.30
2018-10-09T07:12:34.274Z,10.30
2018-10-09T07:15:03.460Z,10.40
2018-10-09T07:17:32.396Z,10.50
2018-10-09T07:20:01.399Z,10.30
2018-10-09T07:22:30.354Z,10.50
2018-10-09T07:24:59.322Z,10.70
2018-10-09T07:27:28.269Z,10.70
2018-10-09T07:29:57.289Z,10.40
2018-10-09T07:32:26.242Z,10.40
2018-10-09T07:34:55.275Z,10.50
2018-10-09T07:37:24.314Z,10.70
2018-10-09T07:39:53.366Z,10.50
2018-10-09T07:42:22.315Z,10.40
2018-10-09T07:44:51.285Z,10.40
2018-10-09T07:47:20.381Z,10.30
2018-10-09T07:49:49.415Z,10.70
2018-10-09T07:52:18.441Z,10.70
2018-10-09T07:54:47.487Z,11.00
2018-10-09T07:57:19.946Z,11.10
2018-10-09T07:59:48.989Z,11.30
2018-10-09T08:02:18.159Z,11.50
2018-10-09T08:04:47.322Z,11.40
2018-10-09T08:07:16.359Z,11.30
2018-10-09T08:09:45.375Z,11.50
2018-10-09T08:12:14.481Z,11.70
2018-10-09T08:14:43.803Z,11.90
2018-10-09T08:17:12.995Z,11.90
2018-10-09T08:19:42.378Z,11.90
2018-10-09T08:22:11.583Z,11.90
2018-10-09T08:24:40.652Z,11.80
2018-10-09T08:27:09.778Z,11.70
2018-10-09T08:29:38.859Z,11.60
2018-10-09T08:32:08.223Z,11.80
2018-10-09T08:34:37.587Z,11.70
2018-10-09T08:37:06.825Z,11.70
2018-10-09T08:39:35.970Z,11.70
2018-10-09T08:42:06.172Z,11.60
2018-10-09T08:44:35.305Z,11.60
2018-10-09T08:47:04.541Z,11.70
2018-10-09T08:49:33.780Z,11.60
2018-10-09T08:52:02.998Z,11.60
2018-10-09T08:54:32.108Z,11.70
2018-10-09T08:57:01.312Z,11.70
2018-10-09T08:59:30.470Z,11.80
2018-10-09T09:01:59.834Z,11.90
2018-10-09T09:04:29.154Z,12.00
2018-10-09T09:06:58.535Z,12.10
2018-10-09T09:09:27.709Z,12.20
2018-10-09T09:11:56.739Z,12.50
2018-10-09T09:14:25.913Z,12.80
2018-10-09T09:16:55.043Z,12.70
2018-10-09T09:19:24.363Z,12.70
2018-10-09T09:21:53.617Z,12.80
2018-10-09T09:24:22.806Z,12.70
2018-10-09T09:26:52.238Z,12.90
2018-10-09T09:29:21.475Z,13.10
2018-10-09T09:31:50.810Z,13.00
2018-10-09T09:34:20.004Z,13.00
2018-10-09T09:36:49.329Z,13.10
2018-10-09T09:39:18.606Z,13.10
2018-10-09T09:41:47.740Z,13.40
2018-10-09T09:44:17.918Z,13.40
2018-10-09T09:46:47.207Z,13.50
2018-10-09T09:49:16.375Z,13.70
2018-10-09T09:51:45.760Z,13.50
2018-10-09T09:54:15.119Z,13.60
2018-10-09T09:56:44.483Z,13.80
2018-10-09T09:59:14.832Z,13.90
2018-10-09T10:01:44.682Z,13.90
2018-10-09T10:04:14.809Z,14.00
2018-10-09T10:06:44.192Z,14.20
2018-10-09T10:09:13.609Z,14.50
2018-10-09T10:11:42.791Z,14.60
2018-10-09T10:14:12.113Z,14.50
2018-10-09T10:16:41.614Z,14.70
2018-10-09T10:19:11.011Z,14.80
2018-10-09T10:21:40.383Z,14.60
2018-10-09T10:24:09.656Z,14.90
2018-10-09T10:26:38.809Z,15.20
2018-10-09T10:29:08.032Z,15.30
2018-10-09T10:31:37.104Z,15.50
2018-10-09T10:34:08.209Z,15.60
2018-10-09T10:36:37.466Z,15.80
2018-10-09T10:39:09.475Z,15.80
2018-10-09T10:41:38.573Z,16.00
2018-10-09T10:44:07.850Z,16.00
2018-10-09T10:46:39.386Z,16.30
2018-10-09T10:49:11.163Z,16.40
2018-10-09T10:51:40.393Z,16.40
2018-10-09T10:54:09.896Z,16.40
2018-10-09T10:56:39.298Z,16.40
2018-10-09T10:59:16.077Z,16.50
2018-10-09T11:01:45.416Z,16.50
2018-10-09T11:04:15.428Z,16.50
2018-10-09T11:06:44.908Z,16.50
2018-10-09T11:09:14.247Z,16.40
2018-10-09T11:12:02.430Z,16.80
2018-10-09T11:14:31.756Z,16.90
2018-10-09T11:17:01.082Z,16.80
2018-10-09T11:23:04.088Z,16.80
2018-10-09T11:25:34.995Z,16.90
2018-10-09T11:30:56.612Z,17.10
2018-10-09T11:33:25.680Z,16.90
2018-10-09T11:35:54.761Z,17.00
2018-10-09T11:41:09.991Z,17.10
2018-10-09T11:43:39.029Z,17.10
2018-10-09T11:49:00.567Z,17.30
2018-10-09T11:51:38.204Z,17.30
2018-10-09T11:54:07.433Z,17.50
2018-10-09T12:03:27.748Z,17.30
2018-10-09T12:05:58.015Z,17.50
2018-10-09T12:08:27.172Z,17.60
2018-10-09T12:10:56.207Z,17.60
2018-10-09T12:19:24.513Z,17.80
2018-10-09T12:21:53.749Z,17.70
2018-10-09T12:25:43.769Z,17.70
2018-10-09T12:31:14.059Z,17.50
2018-10-09T12:33:43.213Z,17.40
2018-10-09T12:36:12.245Z,17.60
2018-10-09T12:38:41.375Z,17.80
2018-10-09T12:41:10.435Z,18.00
2018-10-09T12:43:53.509Z,18.10
2018-10-09T12:46:22.590Z,18.00
2018-10-09T12:48:51.768Z,18.10
2018-10-09T12:51:20.929Z,18.20
2018-10-09T12:54:11.661Z,18.20
2018-10-09T12:56:40.746Z,18.10
2018-10-09T12:59:11.971Z,18.10
2018-10-09T13:01:41.031Z,18.30
2018-10-09T13:04:10.016Z,18.20
2018-10-09T13:06:39.417Z,18.50
2018-10-09T13:09:11.056Z,18.40
2018-10-09T13:11:58.069Z,18.60
2018-10-09T13:14:45.806Z,18.60
2018-10-09T13:20:20.954Z,18.50
2018-10-09T13:23:03.880Z,18.60
2018-10-09T13:25:32.925Z,18.60
2018-10-09T13:28:02.015Z,18.60
2018-10-09T13:36:16.279Z,18.50
2018-10-09T13:38:45.313Z,18.40
2018-10-09T13:58:37.719Z,18.50
2018-10-09T14:01:06.877Z,18.40
2018-10-09T14:20:23.819Z,18.40
2018-10-09T14:40:12.538Z,18.10
2018-10-09T14:48:43.097Z,18.00
2018-10-09T14:51:18.841Z,18.30
2018-10-09T14:59:45.821Z,18.30
2018-10-09T15:36:53.701Z,17.40
2018-10-09T15:39:27.860Z,17.40
2018-10-09T15:41:58.923Z,17.40
2018-10-09T15:44:28.347Z,17.30
2018-10-09T15:46:58.660Z,17.20
2018-10-09T15:49:27.801Z,17.20
2018-10-09T15:51:58.828Z,17.10
2018-10-09T15:54:28.055Z,17.10
2018-10-09T15:57:00.533Z,17.10
2018-10-09T15:59:29.561Z,17.10
2018-10-09T16:01:59.086Z,17.00
2018-10-09T16:04:27.840Z,17.00
2018-10-09T16:07:02.705Z,16.90
2018-10-09T16:09:34.924Z,16.90
2018-10-09T16:12:09.758Z,16.80
2018-10-09T16:14:38.658Z,16.70
2018-10-09T16:17:08.665Z,16.70
2018-10-09T16:19:38.257Z,16.60
2018-10-09T16:22:11.253Z,16.50
2018-10-09T16:25:01.111Z,16.40
2018-10-09T16:27:31.458Z,16.40
2018-10-09T16:30:01.211Z,16.20
2018-10-09T16:32:37.014Z,16.20
2018-10-09T16:35:08.395Z,16.10
2018-10-09T16:37:39.032Z,16.10
2018-10-09T16:40:08.969Z,16.00
2018-10-09T16:42:43.826Z,15.90
2018-10-09T16:45:33.284Z,15.90
2018-10-09T16:48:04.335Z,15.80
2018-10-09T16:50:35.086Z,15.70
2018-10-09T16:53:04.808Z,15.70
2018-10-09T16:55:41.937Z,15.70
2018-10-09T16:58:10.978Z,15.50
2018-10-09T17:00:48.407Z,15.50
2018-10-09T17:03:19.457Z,15.50
2018-10-09T17:05:49.927Z,15.40
2018-10-09T17:08:24.068Z,15.40
2018-10-09T17:10:53.706Z,15.30
2018-10-09T17:13:29.568Z,15.30
2018-10-09T17:16:03.017Z,15.20
2018-10-09T17:18:36.667Z,15.10
2018-10-09T17:21:11.228Z,15.10
2018-10-09T17:23:50.683Z,15.00
2018-10-09T17:26:21.880Z,14.90
2018-10-09T17:28:58.380Z,14.90
2018-10-09T17:31:29.043Z,14.90
2018-10-09T17:34:04.962Z,14.70
2018-10-09T17:36:38.130Z,14.60
2018-10-09T17:39:12.416Z,14.60
2018-10-09T17:41:42.775Z,14.50
2018-10-09T17:44:22.046Z,14.50
2018-10-09T17:47:19.734Z,14.40
2018-10-09T17:49:54.404Z,14.40
2018-10-09T17:52:47.690Z,14.40
2018-10-09T17:55:20.491Z,14.30
2018-10-09T17:58:07.057Z,14.30
2018-10-09T18:00:41.240Z,14.30
2018-10-09T18:03:12.018Z,14.20
2018-10-09T18:06:14.568Z,14.20
2018-10-09T18:08:44.754Z,14.10
2018-10-09T18:11:14.566Z,14.10
2018-10-09T18:13:47.787Z,14.20
2018-10-09T18:16:21.330Z,13.90
2018-10-09T18:18:54.070Z,14.10
2018-10-09T18:21:25.479Z,13.70
2018-10-09T18:23:58.239Z,13.60
2018-10-09T18:26:48.612Z,13.80
2018-10-09T18:29:23.385Z,13.40
2018-10-09T18:31:52.436Z,13.40
2018-10-09T18:34:27.398Z,13.30
2018-10-09T18:36:58.884Z,13.20
2018-10-09T18:42:30.040Z,13.10
2018-10-09T18:45:21.747Z,13.10
2018-10-09T18:47:55.997Z,13.10
2018-10-09T18:50:28.373Z,12.80
2018-10-09T18:53:02.133Z,12.90
2018-10-09T18:55:37.621Z,13.00
2018-10-09T18:58:09.904Z,13.00
2018-10-09T19:00:40.070Z,13.00
2018-10-09T19:03:09.318Z,13.00
2018-10-09T19:10:22.176Z,13.00
2018-10-09T19:13:07.907Z,13.10
2018-10-09T19:15:40.982Z,12.80
2018-10-09T19:18:40.101Z,13.10
2018-10-09T19:21:14.552Z,13.00
2018-10-09T19:23:45.661Z,13.00
2018-10-09T19:26:16.718Z,13.00
2018-10-09T19:28:49.333Z,13.10
2018-10-09T19:31:19.952Z,13.10
2018-10-09T19:33:56.557Z,13.10
2018-10-09T19:36:30.548Z,13.00
2018-10-09T19:39:19.027Z,13.10
2018-10-09T19:41:54.344Z,13.40
2018-10-09T19:44:24.091Z,13.10
2018-10-09T19:46:57.668Z,13.20
2018-10-09T19:49:42.549Z,13.20
2018-10-09T19:52:16.618Z,13.20
2018-10-09T19:54:51.830Z,13.00
2018-10-09T19:57:23.660Z,13.10
2018-10-09T19:59:55.866Z,13.10
2018-10-09T20:02:27.195Z,13.10
2018-10-09T20:04:57.741Z,13.00
2018-10-09T20:07:28.868Z,13.00
2018-10-09T20:10:00.979Z,13.00
2018-10-09T20:12:29.959Z,13.00
2018-10-09T20:15:00.462Z,12.90
2018-10-09T20:17:34.908Z,12.90
2018-10-09T20:20:05.811Z,12.90
2018-10-09T20:22:39.009Z,12.80
2018-10-09T20:25:09.828Z,12.80
2018-10-09T20:27:41.606Z,12.80
2018-10-09T20:30:14.753Z,12.70
2018-10-09T20:32:49.522Z,12.80
2018-10-09T20:35:21.643Z,12.60
2018-10-09T20:37:53.149Z,12.60
2018-10-09T20:40:26.832Z,12.60
2018-10-09T20:42:57.821Z,12.60
2018-10-09T20:45:29.116Z,12.40
2018-10-09T20:47:58.414Z,12.80
2018-10-09T20:50:29.881Z,12.70
2018-10-09T20:53:17.045Z,12.80
2018-10-09T20:55:48.085Z,12.80
2018-10-09T20:58:20.003Z,12.80
2018-10-09T21:00:51.947Z,12.80
2018-10-09T21:03:23.760Z,12.70
2018-10-09T21:05:54.890Z,12.80
2018-10-09T21:08:24.103Z,12.70
2018-10-09T21:11:03.847Z,12.70
2018-10-09T21:13:34.907Z,12.70
2018-10-09T21:16:06.718Z,12.70
2018-10-09T21:18:38.745Z,12.70
2018-10-09T21:21:10.471Z,12.60
2018-10-09T21:23:44.003Z,12.70
2018-10-09T21:26:13.550Z,12.70
2018-10-09T21:28:43.925Z,12.70
2018-10-09T21:31:16.060Z,12.50
2018-10-09T21:33:48.721Z,12.40
2018-10-09T21:36:18.936Z,12.60
2018-10-09T21:38:49.363Z,12.30
2018-10-09T21:41:24.393Z,12.20
2018-10-09T21:43:54.987Z,12.10
2018-10-09T21:46:25.993Z,12.00
2018-10-09T21:48:55.009Z,12.10
2018-10-09T21:51:27.450Z,12.00
2018-10-09T21:53:59.043Z,12.00
2018-10-09T21:56:30.326Z,12.20
2018-10-09T21:59:01.185Z,12.30
2018-10-09T22:01:33.196Z,12.40
2018-10-09T22:04:02.354Z,12.60
2018-10-09T22:06:33.651Z,12.40
2018-10-09T22:09:03.035Z,12.50
2018-10-09T22:11:33.023Z,12.40
2018-10-09T22:14:02.610Z,12.60
2018-10-09T22:16:31.321Z,12.60
2018-10-09T22:19:00.048Z,12.90
2018-10-09T22:21:31.031Z,12.70
2018-10-09T22:24:00.397Z,12.70
2018-10-09T22:26:29.682Z,12.70
2018-10-09T22:28:59.237Z,12.80
2018-10-09T22:31:29.735Z,12.80
2018-10-09T22:33:58.479Z,12.70
2018-10-09T22:36:27.063Z,12.80
2018-10-09T22:38:55.916Z,13.10
2018-10-09T22:41:26.991Z,13.10
2018-10-09T22:43:58.554Z,13.20
2018-10-09T22:46:31.943Z,13.30
2018-10-09T22:49:06.465Z,13.70
2018-10-09T22:51:39.662Z,13.50
2018-10-09T22:54:14.055Z,13.40
2018-10-09T22:56:46.657Z,13.60
2018-10-09T22:59:19.436Z,14.00
2018-10-09T23:01:48.924Z,13.80
2018-10-09T23:04:18.994Z,13.90
2018-10-09T23:06:47.793Z,14.00
2018-10-09T23:09:18.356Z,14.10
2018-10-09T23:11:47.329Z,14.20
2018-10-09T23:14:18.540Z,14.20
2018-10-09T23:16:47.728Z,14.30
2018-10-09T23:19:18.800Z,14.30
2018-10-09T23:21:49.089Z,14.30
2018-10-09T23:24:19.251Z,14.30
2018-10-09T23:26:50.046Z,14.50
2018-10-09T23:29:21.628Z,14.20
2018-10-09T23:31:51.287Z,14.20
2018-10-09T23:34:20.964Z,14.20
2018-10-09T23:36:51.057Z,14.20
2018-10-09T23:39:21.050Z,14.10
2018-10-09T23:41:50.054Z,14.40
2018-10-09T23:44:18.857Z,14.20
2018-10-09T23:46:48.455Z,14.30
2018-10-09T23:49:17.754Z,14.40
2018-10-09T23:51:49.041Z,14.40
2018-10-09T23:54:18.829Z,14.30
2018-10-09T23:56:47.858Z,14.30
2018-10-09T23:59:18.106Z,14.30
